Time;durP1;ratioP1;P1;durP2;ratioP2;P2;SDS_P1;SDS_P2;PMS_P1;PMS_P2;Temp;Humidity;BMP_temperature;BMP_pressure;BME280_temperature;BME280_humidity;BME280_pressure;Samples;Min_cycle;Max_cycle;Signal;HPM_P1;HPM_P2
2022/04/02 00:00:28;;;;;;;;;;;-0.90;99.90;;;;;;5053883;28;19916;-72
2022/04/02 00:02:54;;;;;;;;;;;-0.90;99.90;;;;;;5051543;28;19909;-71
2022/04/02 00:05:20;;;;;;;;;;;-0.90;99.90;;;;;;5051118;28;20043;-72
2022/04/02 00:07:45;;;;;;;;;;;-0.90;99.90;;;;;;5050710;28;20383;-72
2022/04/02 00:10:11;;;;;;;;;;;-1.00;99.90;;;;;;5051225;28;19909;-72
2022/04/02 00:12:37;;;;;;;;;;;-1.00;99.90;;;;;;5051186;28;20281;-72
2022/04/02 00:15:03;;;;;;;;;;;-1.00;99.90;;;;;;5050980;28;20366;-72
2022/04/02 00:17:28;;;;;;;;;;;-0.90;99.90;;;;;;5050601;28;19959;-72
2022/04/02 00:19:54;;;;;;;;;;;-1.00;99.90;;;;;;5053668;28;20002;-71
2022/04/02 00:22:19;;;;;;;;;;;-1.00;99.90;;;;;;5053604;28;19913;-72
2022/04/02 00:24:46;;;;;;;;;;;-1.00;99.90;;;;;;5053532;28;19916;-72
2022/04/02 00:27:11;;;;;;;;;;;-0.90;99.90;;;;;;5047450;28;19932;-72
2022/04/02 00:29:38;;;;;;;;;;;-0.90;99.90;;;;;;5053476;28;19909;-72
2022/04/02 00:32:05;;;;;;;;;;;-1.00;99.90;;;;;;5053465;28;20151;-72
2022/04/02 00:34:30;;;;;;;;;;;-0.90;99.90;;;;;;5053302;28;19909;-72
2022/04/02 00:36:56;;;;;;;;;;;-0.90;99.90;;;;;;5053494;28;19916;-72
2022/04/02 00:39:21;;;;;;;;;;;-0.80;99.90;;;;;;5053432;28;20014;-72
2022/04/02 00:41:47;;;;;;;;;;;-0.90;99.90;;;;;;5053244;28;19962;-72
2022/04/02 00:44:13;;;;;;;;;;;-0.90;99.90;;;;;;5053624;28;19955;-72
2022/04/02 00:46:40;;;;;;;;;;;-0.90;99.90;;;;;;5053215;28;19916;-72
2022/04/02 00:49:06;;;;;;;;;;;-0.80;99.90;;;;;;5053354;28;20366;-72
2022/04/02 00:51:33;;;;;;;;;;;-0.90;99.90;;;;;;5053029;28;19909;-72
2022/04/02 00:53:59;;;;;;;;;;;-0.90;99.90;;;;;;5052971;28;19920;-72
2022/04/02 00:56:24;;;;;;;;;;;-0.80;99.90;;;;;;5052546;28;20031;-72
2022/04/02 00:58:50;;;;;;;;;;;-0.90;99.90;;;;;;5052773;28;19987;-72
2022/04/02 01:01:16;;;;;;;;;;;-0.90;99.90;;;;;;5052778;28;19908;-72
2022/04/02 01:03:42;;;;;;;;;;;-0.80;99.90;;;;;;5052757;28;20460;-72
2022/04/02 01:06:10;;;;;;;;;;;-0.80;99.90;;;;;;5052927;28;20007;-72
2022/04/02 01:08:35;;;;;;;;;;;-0.80;99.90;;;;;;5053282;28;19962;-72
2022/04/02 01:11:01;;;;;;;;;;;-0.80;99.90;;;;;;5052713;28;19912;-72
2022/04/02 01:13:27;;;;;;;;;;;-0.80;99.90;;;;;;5052556;28;20373;-72
2022/04/02 01:15:53;;;;;;;;;;;-0.80;99.90;;;;;;5052671;28;19955;-72
2022/04/02 01:18:19;;;;;;;;;;;-0.80;99.90;;;;;;5045937;28;19951;-72
2022/04/02 01:20:45;;;;;;;;;;;-0.80;99.90;;;;;;5052030;28;19962;-72
2022/04/02 01:23:10;;;;;;;;;;;-0.70;99.90;;;;;;5052374;28;19913;-72
2022/04/02 01:25:36;;;;;;;;;;;-0.80;99.90;;;;;;5052689;28;20327;-72
2022/04/02 01:28:02;;;;;;;;;;;-0.70;99.90;;;;;;5052373;28;19919;-72
2022/04/02 01:30:29;;;;;;;;;;;-0.80;99.90;;;;;;5052340;28;19970;-72
2022/04/02 01:32:54;;;;;;;;;;;-0.80;99.90;;;;;;5052744;28;19909;-72
2022/04/02 01:35:21;;;;;;;;;;;-0.70;99.90;;;;;;5052190;28;19909;-72
2022/04/02 01:37:47;;;;;;;;;;;-0.70;99.90;;;;;;5052369;28;19913;-72
2022/04/02 01:40:12;;;;;;;;;;;-0.80;99.90;;;;;;5052194;28;19999;-72
2022/04/02 01:42:38;;;;;;;;;;;-0.80;99.90;;;;;;5052151;28;19922;-72
2022/04/02 01:45:03;;;;;;;;;;;-0.80;99.90;;;;;;5051911;28;20031;-72
2022/04/02 01:47:29;;;;;;;;;;;-0.80;99.90;;;;;;5050913;28;20553;-72
2022/04/02 01:49:55;;;;;;;;;;;-0.80;99.90;;;;;;5051803;28;19996;-72
2022/04/02 01:52:20;;;;;;;;;;;-0.80;99.90;;;;;;5052171;28;20267;-72
2022/04/02 01:54:46;;;;;;;;;;;-0.80;99.90;;;;;;5051755;28;20374;-72
2022/04/02 01:57:12;;;;;;;;;;;-0.80;99.90;;;;;;5052076;28;19908;-71
2022/04/02 01:59:40;;;;;;;;;;;-0.70;99.90;;;;;;5051783;28;19923;-72
2022/04/02 02:02:08;;;;;;;;;;;-0.70;99.90;;;;;;5051891;28;19948;-72
2022/04/02 02:04:34;;;;;;;;;;;-0.70;99.90;;;;;;5051639;28;19931;-72
2022/04/02 02:07:00;;;;;;;;;;;-0.70;99.90;;;;;;5051881;28;19909;-72
2022/04/02 02:09:25;;;;;;;;;;;-0.70;99.90;;;;;;5051968;28;20338;-72
2022/04/02 02:11:51;;;;;;;;;;;-0.70;99.90;;;;;;5051647;28;19944;-72
2022/04/02 02:14:16;;;;;;;;;;;-0.70;99.90;;;;;;5051507;28;20003;-72
2022/04/02 02:16:42;;;;;;;;;;;-0.70;99.90;;;;;;5048907;28;19909;-72
2022/04/02 02:19:07;;;;;;;;;;;-0.70;99.90;;;;;;5051355;28;20362;-72
2022/04/02 02:21:33;;;;;;;;;;;-0.70;99.90;;;;;;5051635;28;19915;-72
2022/04/02 02:23:58;;;;;;;;;;;-0.70;99.90;;;;;;5051590;28;19955;-72
2022/04/02 02:26:24;;;;;;;;;;;-0.70;99.90;;;;;;5050570;28;20281;-72
2022/04/02 02:28:50;;;;;;;;;;;-0.80;99.90;;;;;;5051574;28;19916;-72
2022/04/02 02:31:15;;;;;;;;;;;-0.70;99.90;;;;;;5051261;28;19913;-72
2022/04/02 02:36:25;;;;;;;;;;;-0.70;99.90;;;;;;5056247;28;20433;-72
2022/04/02 02:38:51;;;;;;;;;;;-0.70;99.90;;;;;;5051384;28;19956;-72
2022/04/02 02:41:16;;;;;;;;;;;-0.70;99.90;;;;;;5051266;28;19970;-72
2022/04/02 02:43:42;;;;;;;;;;;-0.70;99.90;;;;;;5051318;28;19962;-72
2022/04/02 02:46:08;;;;;;;;;;;-0.70;99.90;;;;;;5051452;28;20401;-72
2022/04/02 02:48:34;;;;;;;;;;;-0.70;99.90;;;;;;5051490;28;19916;-72
2022/04/02 02:51:00;;;;;;;;;;;-0.70;99.90;;;;;;5044932;28;19909;-72
2022/04/02 02:53:26;;;;;;;;;;;-0.70;99.90;;;;;;5051120;28;20366;-72
2022/04/02 02:55:51;;;;;;;;;;;-0.70;99.90;;;;;;5051268;28;19924;-72
2022/04/02 02:58:17;;;;;;;;;;;-0.70;99.90;;;;;;5051273;28;20012;-72
2022/04/02 03:00:43;;;;;;;;;;;-0.70;99.90;;;;;;5051077;28;19932;-72
2022/04/02 03:03:09;;;;;;;;;;;-0.70;99.90;;;;;;5051006;28;19975;-72
2022/04/02 03:05:35;;;;;;;;;;;-0.70;99.90;;;;;;5051337;28;19909;-72
2022/04/02 03:08:01;;;;;;;;;;;-0.70;99.90;;;;;;5054187;28;19915;-72
2022/04/02 03:10:27;;;;;;;;;;;-0.70;99.90;;;;;;5052808;28;19916;-72
2022/04/02 03:12:53;;;;;;;;;;;-0.70;99.90;;;;;;5052614;28;20384;-72
2022/04/02 03:15:19;;;;;;;;;;;-0.70;99.90;;;;;;5053668;28;19916;-72
2022/04/02 03:17:45;;;;;;;;;;;-0.70;99.90;;;;;;5051019;28;19921;-72
2022/04/02 03:20:11;;;;;;;;;;;-0.70;99.90;;;;;;5050982;28;19920;-72
2022/04/02 03:22:39;;;;;;;;;;;-0.70;99.90;;;;;;5051051;28;20358;-72
2022/04/02 03:25:11;;;;;;;;;;;-0.70;99.90;;;;;;5050805;28;19983;-72
2022/04/02 03:27:37;;;;;;;;;;;-0.70;99.90;;;;;;5050710;28;19951;-72
2022/04/02 03:30:04;;;;;;;;;;;-0.70;99.90;;;;;;5049422;28;20005;-72
2022/04/02 03:32:29;;;;;;;;;;;-0.70;99.90;;;;;;5050685;28;19915;-72
2022/04/02 03:34:55;;;;;;;;;;;-0.70;99.90;;;;;;5050506;28;20003;-72
2022/04/02 03:37:20;;;;;;;;;;;-0.80;99.90;;;;;;5049197;28;19909;-72
2022/04/02 03:39:46;;;;;;;;;;;-0.70;99.90;;;;;;5050224;28;19913;-72
2022/04/02 03:42:11;;;;;;;;;;;-0.70;99.90;;;;;;5051370;28;20328;-72
2022/04/02 03:44:37;;;;;;;;;;;-0.80;99.90;;;;;;5054160;28;19909;-72
2022/04/02 03:47:09;;;;;;;;;;;-0.80;99.90;;;;;;5054038;28;20332;-72
2022/04/02 03:49:38;;;;;;;;;;;-0.70;99.90;;;;;;5054144;28;19928;-72
2022/04/02 03:52:04;;;;;;;;;;;-0.80;99.90;;;;;;5053890;28;19915;-72
2022/04/02 03:54:30;;;;;;;;;;;-0.80;99.90;;;;;;5053724;28;19908;-72
2022/04/02 03:56:55;;;;;;;;;;;-0.90;99.90;;;;;;5054015;28;19916;-72
2022/04/02 03:59:21;;;;;;;;;;;-0.90;99.90;;;;;;5053933;28;19912;-72
2022/04/02 04:01:46;;;;;;;;;;;-0.90;99.90;;;;;;5053735;28;19955;-72
2022/04/02 04:04:13;;;;;;;;;;;-1.00;99.90;;;;;;5053741;28;20369;-73
2022/04/02 04:06:38;;;;;;;;;;;-0.90;99.90;;;;;;5053381;28;20007;-72
2022/04/02 04:09:04;;;;;;;;;;;-1.00;99.90;;;;;;5053660;28;20000;-72
2022/04/02 04:11:29;;;;;;;;;;;-1.00;99.90;;;;;;5053565;28;19975;-72
2022/04/02 04:13:56;;;;;;;;;;;-1.00;99.90;;;;;;5053245;28;20381;-71
2022/04/02 04:16:22;;;;;;;;;;;-1.10;99.90;;;;;;5053654;28;19999;-72
2022/04/02 04:18:47;;;;;;;;;;;-1.10;99.90;;;;;;5053417;28;20019;-72
2022/04/02 04:21:14;;;;;;;;;;;-1.10;99.90;;;;;;5053738;28;19909;-72
2022/04/02 04:23:43;;;;;;;;;;;-1.10;99.90;;;;;;5053475;28;19909;-72
2022/04/02 04:26:09;;;;;;;;;;;-1.10;99.90;;;;;;5053399;28;19936;-72
2022/04/02 04:28:35;;;;;;;;;;;-1.10;99.90;;;;;;5053771;28;20370;-72
2022/04/02 04:31:01;;;;;;;;;;;-1.20;99.90;;;;;;5053638;28;19909;-72
2022/04/02 04:33:26;;;;;;;;;;;-1.20;99.90;;;;;;5053318;28;19970;-72
2022/04/02 04:35:52;;;;;;;;;;;-1.20;99.90;;;;;;5051384;28;20382;-72
2022/04/02 04:38:17;;;;;;;;;;;-1.20;99.90;;;;;;5053174;28;19956;-72
2022/04/02 04:40:43;;;;;;;;;;;-1.20;99.90;;;;;;5053428;28;20389;-72
2022/04/02 04:43:08;;;;;;;;;;;-1.20;99.90;;;;;;5053420;28;19916;-72
2022/04/02 04:45:34;;;;;;;;;;;-1.20;99.90;;;;;;5053391;28;20370;-73
2022/04/02 04:47:59;;;;;;;;;;;-1.30;99.90;;;;;;5053801;28;19931;-73
2022/04/02 04:50:26;;;;;;;;;;;-1.30;99.90;;;;;;5052949;28;19961;-73
2022/04/02 04:52:52;;;;;;;;;;;-1.30;99.90;;;;;;5052664;28;19909;-73
2022/04/02 04:55:17;;;;;;;;;;;-1.30;99.90;;;;;;5052882;28;19936;-72
2022/04/02 04:57:43;;;;;;;;;;;-1.30;99.90;;;;;;5053021;28;19908;-73
2022/04/02 05:00:08;;;;;;;;;;;-1.30;99.90;;;;;;5052713;28;20273;-73
2022/04/02 05:02:35;;;;;;;;;;;-1.30;99.90;;;;;;5052805;28;19997;-73
2022/04/02 05:05:00;;;;;;;;;;;-1.30;99.90;;;;;;5052536;28;19913;-73
2022/04/02 05:07:26;;;;;;;;;;;-1.30;99.90;;;;;;5053330;28;20340;-73
2022/04/02 05:09:52;;;;;;;;;;;-1.30;99.90;;;;;;5052581;28;19913;-73
2022/04/02 05:12:18;;;;;;;;;;;-1.30;99.90;;;;;;5051421;28;19913;-73
2022/04/02 05:14:44;;;;;;;;;;;-1.30;99.90;;;;;;5052306;28;19909;-73
2022/04/02 05:17:10;;;;;;;;;;;-1.20;99.90;;;;;;5052543;28;19913;-73
2022/04/02 05:19:35;;;;;;;;;;;-1.20;99.90;;;;;;5052281;28;19912;-73
2022/04/02 05:22:01;;;;;;;;;;;-1.20;99.90;;;;;;5052259;28;19909;-73
2022/04/02 05:24:26;;;;;;;;;;;-1.20;99.90;;;;;;5052274;28;19912;-73
2022/04/02 05:26:52;;;;;;;;;;;-1.10;99.90;;;;;;5052435;28;20115;-73
2022/04/02 05:29:17;;;;;;;;;;;-1.10;99.90;;;;;;5052293;28;20007;-73
2022/04/02 05:31:43;;;;;;;;;;;-1.10;99.90;;;;;;5052224;28;19909;-73
2022/04/02 05:34:09;;;;;;;;;;;-1.10;99.90;;;;;;5051764;28;20385;-73
2022/04/02 05:36:35;;;;;;;;;;;-1.10;99.90;;;;;;5051046;28;19916;-72
2022/04/02 05:39:00;;;;;;;;;;;-1.20;99.90;;;;;;5051936;28;19920;-72
2022/04/02 05:41:26;;;;;;;;;;;-1.10;99.90;;;;;;5052040;28;19909;-72
2022/04/02 05:43:51;;;;;;;;;;;-1.10;99.90;;;;;;5051772;28;20016;-73
2022/04/02 05:46:17;;;;;;;;;;;-1.10;99.90;;;;;;5052123;28;19954;-72
2022/04/02 05:48:43;;;;;;;;;;;-1.10;99.90;;;;;;5051916;28;19916;-72
2022/04/02 05:51:08;;;;;;;;;;;-1.10;99.90;;;;;;5051499;28;19909;-73
2022/04/02 05:53:34;;;;;;;;;;;-1.10;99.90;;;;;;5044780;28;19909;-72
2022/04/02 05:56:01;;;;;;;;;;;-1.10;99.90;;;;;;5051652;28;19999;-73
2022/04/02 05:58:27;;;;;;;;;;;-1.00;99.90;;;;;;5051538;28;19913;-72
2022/04/02 06:00:53;;;;;;;;;;;-1.10;99.90;;;;;;5051498;28;20007;-72
2022/04/02 06:03:20;;;;;;;;;;;-1.10;99.90;;;;;;5051050;28;19960;-72
2022/04/02 06:05:46;;;;;;;;;;;-1.00;99.90;;;;;;5049314;28;19959;-72
2022/04/02 06:08:11;;;;;;;;;;;-0.90;99.90;;;;;;5051145;28;20003;-73
2022/04/02 06:10:37;;;;;;;;;;;-0.90;99.90;;;;;;5050128;28;20004;-72
2022/04/02 06:13:02;;;;;;;;;;;-1.00;99.90;;;;;;5051145;28;19924;-72
2022/04/02 06:15:28;;;;;;;;;;;-0.90;99.90;;;;;;5051087;28;19920;-72
2022/04/02 06:17:53;;;;;;;;;;;-0.90;99.90;;;;;;5047378;28;20306;-72
2022/04/02 06:20:19;;;;;;;;;;;-0.80;99.90;;;;;;5051113;28;19913;-73
2022/04/02 06:22:44;;;;;;;;;;;-0.70;99.90;;;;;;5051132;28;19916;-72
2022/04/02 06:25:10;;;;;;;;;;;-0.80;99.90;;;;;;5051074;28;19997;-73
2022/04/02 06:27:45;;;;;;;;;;;-0.80;99.90;;;;;;5051225;28;19991;-73
2022/04/02 06:30:15;;;;;;;;;;;-0.60;99.90;;;;;;5049610;28;20034;-73
2022/04/02 06:32:40;;;;;;;;;;;-0.60;99.90;;;;;;5051078;28;19909;-74
2022/04/02 06:35:07;;;;;;;;;;;-0.70;99.90;;;;;;5051022;28;20383;-73
2022/04/02 06:37:40;;;;;;;;;;;-0.60;99.90;;;;;;5051123;28;19909;-73
2022/04/02 06:40:06;;;;;;;;;;;-0.60;99.90;;;;;;5049695;28;20286;-73
2022/04/02 06:42:32;;;;;;;;;;;-0.60;99.90;;;;;;5051658;28;20420;-72
2022/04/02 06:44:57;;;;;;;;;;;-0.50;99.90;;;;;;5050884;28;19992;-73
2022/04/02 06:47:26;;;;;;;;;;;-0.50;99.90;;;;;;5046646;28;19949;-73
2022/04/02 06:49:52;;;;;;;;;;;-0.50;99.90;;;;;;5055998;28;20008;-72
2022/04/02 06:52:17;;;;;;;;;;;-0.40;99.90;;;;;;5050959;28;19955;-73
2022/04/02 06:54:43;;;;;;;;;;;-0.60;99.90;;;;;;5050688;28;19952;-72
2022/04/02 06:57:08;;;;;;;;;;;-0.50;99.90;;;;;;5050939;28;20106;-73
2022/04/02 06:59:34;;;;;;;;;;;-0.40;99.90;;;;;;5049351;28;19913;-72
2022/04/02 07:01:59;;;;;;;;;;;-0.30;99.90;;;;;;5050770;28;20377;-73
2022/04/02 07:04:25;;;;;;;;;;;-0.30;99.90;;;;;;5050658;28;19936;-72
2022/04/02 07:06:50;;;;;;;;;;;-0.30;99.90;;;;;;5050959;28;20334;-73
2022/04/02 07:09:18;;;;;;;;;;;-0.40;99.90;;;;;;5050865;28;20369;-73
2022/04/02 07:11:43;;;;;;;;;;;-0.40;99.90;;;;;;5050596;28;20388;-74
2022/04/02 07:14:09;;;;;;;;;;;-0.50;99.90;;;;;;5050487;28;19913;-73
2022/04/02 07:16:36;;;;;;;;;;;-0.50;99.90;;;;;;5050934;28;19971;-74
2022/04/02 07:19:02;;;;;;;;;;;-0.40;99.90;;;;;;5052626;28;20293;-74
2022/04/02 07:21:28;;;;;;;;;;;-0.50;99.90;;;;;;5054269;28;19917;-74
2022/04/02 07:23:54;;;;;;;;;;;-0.40;99.90;;;;;;5054361;28;19924;-73
2022/04/02 07:26:20;;;;;;;;;;;-0.40;99.90;;;;;;5054883;28;20281;-74
2022/04/02 07:28:47;;;;;;;;;;;-0.40;99.90;;;;;;5054247;28;19908;-73
2022/04/02 07:31:12;;;;;;;;;;;-0.40;99.90;;;;;;5054343;28;20262;-73
2022/04/02 07:33:38;;;;;;;;;;;-0.30;99.90;;;;;;5054020;28;20011;-74
2022/04/02 07:36:08;;;;;;;;;;;-0.30;99.90;;;;;;5054276;28;19916;-74
2022/04/02 07:38:49;;;;;;;;;;;-0.40;99.90;;;;;;5054194;28;19920;-74
2022/04/02 07:41:20;;;;;;;;;;;-0.40;99.90;;;;;;5053836;28;19909;-74
2022/04/02 07:43:48;;;;;;;;;;;-0.30;99.90;;;;;;5053943;28;20365;-74
2022/04/02 07:46:16;;;;;;;;;;;-0.40;99.90;;;;;;5054046;28;20389;-74
2022/04/02 07:48:43;;;;;;;;;;;-0.40;99.90;;;;;;5050508;28;19909;-73
2022/04/02 07:51:11;;;;;;;;;;;-0.40;99.90;;;;;;5055387;28;19916;-74
2022/04/02 07:53:41;;;;;;;;;;;-0.40;99.90;;;;;;5052952;28;20366;-74
2022/04/02 07:56:09;;;;;;;;;;;-0.50;99.90;;;;;;5053737;28;19909;-74
2022/04/02 07:58:38;;;;;;;;;;;-0.30;99.90;;;;;;5053693;28;19919;-73
2022/04/02 08:01:04;;;;;;;;;;;-0.40;99.90;;;;;;5053730;28;19909;-73
2022/04/02 08:03:31;;;;;;;;;;;-0.30;99.90;;;;;;5053595;28;20434;-73
2022/04/02 08:05:56;;;;;;;;;;;-0.20;99.90;;;;;;5053810;28;19909;-73
2022/04/02 08:08:25;;;;;;;;;;;-0.10;99.90;;;;;;5053622;28;19935;-73
2022/04/02 08:10:51;;;;;;;;;;;-0.40;99.90;;;;;;5053573;28;19962;-74
2022/04/02 08:13:18;;;;;;;;;;;-0.20;99.90;;;;;;5053317;28;19909;-74
2022/04/02 08:15:44;;;;;;;;;;;-0.10;99.90;;;;;;5053641;28;19912;-73
2022/04/02 08:18:10;;;;;;;;;;;-0.20;99.90;;;;;;5047935;28;20293;-73
2022/04/02 08:20:36;;;;;;;;;;;-0.10;99.90;;;;;;5053075;28;19909;-73
2022/04/02 08:23:01;;;;;;;;;;;-0.10;99.90;;;;;;5053017;28;19972;-74
2022/04/02 08:25:27;;;;;;;;;;;-0.10;99.90;;;;;;5053079;28;19908;-74
2022/04/02 08:28:05;;;;;;;;;;;-0.20;99.90;;;;;;5052860;28;19920;-75
2022/04/02 08:30:32;;;;;;;;;;;-0.40;99.90;;;;;;5048857;28;19916;-73
2022/04/02 08:33:12;;;;;;;;;;;-0.30;99.90;;;;;;5052789;28;20281;-74
2022/04/02 08:35:38;;;;;;;;;;;-0.20;99.90;;;;;;5049966;28;19909;-74
2022/04/02 08:38:22;;;;;;;;;;;-0.20;99.90;;;;;;5052327;28;19909;-73
2022/04/02 08:40:50;;;;;;;;;;;-0.10;99.90;;;;;;5047960;28;19913;-74
2022/04/02 08:43:16;;;;;;;;;;;-0.10;99.90;;;;;;5052647;28;20367;-74
2022/04/02 08:45:53;;;;;;;;;;;0.00;99.90;;;;;;5052885;28;19913;-74
2022/04/02 08:48:28;;;;;;;;;;;-0.10;99.90;;;;;;5053061;28;19912;-74
2022/04/02 08:50:55;;;;;;;;;;;-0.30;99.90;;;;;;5053366;28;19913;-74
2022/04/02 08:53:27;;;;;;;;;;;0.00;99.90;;;;;;5053054;28;19996;-74
2022/04/02 08:56:00;;;;;;;;;;;0.00;99.90;;;;;;5053234;28;19912;-74
2022/04/02 08:58:38;;;;;;;;;;;-0.30;99.90;;;;;;5051390;28;19923;-75
2022/04/02 09:01:05;;;;;;;;;;;-0.20;99.90;;;;;;5046628;28;20392;-74
2022/04/02 09:03:49;;;;;;;;;;;0.00;99.90;;;;;;5046317;28;20274;-74
2022/04/02 09:06:33;;;;;;;;;;;0.20;99.90;;;;;;5048789;28;19913;-74
2022/04/02 09:08:59;;;;;;;;;;;0.10;99.90;;;;;;5044660;28;19921;-74
2022/04/02 09:11:25;;;;;;;;;;;0.30;99.90;;;;;;5047839;28;20287;-74
2022/04/02 09:14:03;;;;;;;;;;;0.30;99.90;;;;;;5052534;28;19908;-74
2022/04/02 09:16:35;;;;;;;;;;;0.30;99.90;;;;;;5051612;28;19963;-75
2022/04/02 09:19:10;;;;;;;;;;;0.00;99.90;;;;;;5052174;28;19921;-75
2022/04/02 09:21:53;;;;;;;;;;;0.00;99.90;;;;;;5045856;28;19912;-75
2022/04/02 09:24:39;;;;;;;;;;;0.10;99.90;;;;;;5051954;28;19916;-75
2022/04/02 09:27:14;;;;;;;;;;;0.10;99.90;;;;;;5042662;28;19921;-76
2022/04/02 09:29:58;;;;;;;;;;;0.20;99.90;;;;;;5048804;28;19909;-74
2022/04/02 09:32:46;;;;;;;;;;;-0.10;99.90;;;;;;5046919;28;19915;-75
2022/04/02 09:35:36;;;;;;;;;;;0.00;99.90;;;;;;5051677;28;19916;-74
2022/04/02 09:38:26;;;;;;;;;;;0.00;99.90;;;;;;5046226;28;19921;-74
2022/04/02 09:40:52;;;;;;;;;;;0.10;99.90;;;;;;5051197;28;19917;-74
2022/04/02 09:43:26;;;;;;;;;;;-0.10;99.90;;;;;;5051567;28;19916;-73
2022/04/02 09:46:06;;;;;;;;;;;-0.20;99.90;;;;;;5051666;28;19916;-74
2022/04/02 09:48:38;;;;;;;;;;;-0.30;99.90;;;;;;5051740;28;20285;-74
2022/04/02 09:51:07;;;;;;;;;;;-0.20;99.90;;;;;;5051472;28;19909;-77
2022/04/02 09:53:39;;;;;;;;;;;-0.10;99.90;;;;;;5051322;28;19970;-75
2022/04/02 09:56:16;;;;;;;;;;;-0.10;99.90;;;;;;5051473;28;20388;-75
2022/04/02 09:58:41;;;;;;;;;;;-0.10;99.90;;;;;;5043893;28;20265;-74
2022/04/02 10:01:11;;;;;;;;;;;-0.20;99.90;;;;;;5050676;28;20015;-75
2022/04/02 10:03:48;;;;;;;;;;;-0.20;99.90;;;;;;5049451;28;20003;-74
2022/04/02 10:06:30;;;;;;;;;;;-0.10;99.90;;;;;;5049747;28;19916;-75
2022/04/02 10:09:15;;;;;;;;;;;-0.10;99.90;;;;;;5049396;28;19967;-75
2022/04/02 10:11:46;;;;;;;;;;;-0.30;99.90;;;;;;5044325;28;19916;-75
2022/04/02 10:14:17;;;;;;;;;;;-0.20;99.90;;;;;;5050872;28;20408;-76
2022/04/02 10:16:48;;;;;;;;;;;-0.40;99.90;;;;;;5051798;28;19944;-75
2022/04/02 10:19:14;;;;;;;;;;;-0.20;99.90;;;;;;5047689;28;20369;-75
2022/04/02 10:21:39;;;;;;;;;;;0.00;99.90;;;;;;5051178;28;19948;-75
2022/04/02 10:24:14;;;;;;;;;;;0.10;99.90;;;;;;5047691;28;19932;-75
2022/04/02 10:26:40;;;;;;;;;;;0.00;99.90;;;;;;5051650;28;19909;-74
2022/04/02 10:29:13;;;;;;;;;;;-0.10;99.90;;;;;;5052028;28;19962;-74
2022/04/02 10:31:45;;;;;;;;;;;-0.20;99.90;;;;;;5051236;28;20293;-72
2022/04/02 10:34:11;;;;;;;;;;;0.00;99.90;;;;;;5053131;28;19995;-74
2022/04/02 10:36:46;;;;;;;;;;;0.20;99.90;;;;;;5046595;28;19941;-74
2022/04/02 10:39:14;;;;;;;;;;;0.30;99.90;;;;;;5051446;28;19979;-74
2022/04/02 10:41:43;;;;;;;;;;;0.10;99.90;;;;;;5051524;28;19909;-74
2022/04/02 10:44:27;;;;;;;;;;;0.10;99.90;;;;;;5051199;28;20320;-74
2022/04/02 10:46:55;;;;;;;;;;;0.10;99.90;;;;;;5046220;28;19909;-76
2022/04/02 10:49:25;;;;;;;;;;;0.30;99.90;;;;;;5049313;28;19916;-76
2022/04/02 10:51:53;;;;;;;;;;;0.20;99.90;;;;;;5051918;28;19934;-75
2022/04/02 10:54:22;;;;;;;;;;;0.20;99.90;;;;;;5055191;28;20377;-74
2022/04/02 10:56:48;;;;;;;;;;;0.20;99.90;;;;;;5054029;28;20493;-74
2022/04/02 10:59:14;;;;;;;;;;;0.00;99.90;;;;;;5055161;28;19996;-75
2022/04/02 11:01:42;;;;;;;;;;;0.20;99.90;;;;;;5055038;28;19955;-74
2022/04/02 11:04:22;;;;;;;;;;;0.50;99.90;;;;;;5055180;28;19932;-73
2022/04/02 11:06:49;;;;;;;;;;;0.10;99.90;;;;;;5055488;28;20263;-74
2022/04/02 11:09:31;;;;;;;;;;;0.20;99.90;;;;;;5053893;28;19932;-74
2022/04/02 11:11:57;;;;;;;;;;;0.40;99.90;;;;;;5055022;28;19913;-74
2022/04/02 11:14:23;;;;;;;;;;;0.40;99.90;;;;;;5054885;28;19995;-74
2022/04/02 11:16:48;;;;;;;;;;;0.40;99.90;;;;;;5054853;28;19916;-74
2022/04/02 11:22:21;;;;;;;;;;;0.30;99.90;;;;;;5053524;28;19959;-75
2022/04/02 11:24:56;;;;;;;;;;;0.10;99.90;;;;;;5054416;28;19944;-75
2022/04/02 11:27:23;;;;;;;;;;;0.40;99.90;;;;;;5054790;28;19908;-75
2022/04/02 11:29:50;;;;;;;;;;;0.40;99.90;;;;;;5054546;28;19909;-74
2022/04/02 11:32:21;;;;;;;;;;;0.70;99.90;;;;;;5054883;28;19943;-77
2022/04/02 11:34:47;;;;;;;;;;;0.40;99.90;;;;;;5054232;28;19908;-75
2022/04/02 11:37:13;;;;;;;;;;;0.20;99.90;;;;;;5054452;28;20375;-74
2022/04/02 11:39:48;;;;;;;;;;;0.40;99.90;;;;;;5054648;28;19917;-74
2022/04/02 11:42:14;;;;;;;;;;;0.00;99.90;;;;;;5054215;28;19955;-75
2022/04/02 11:44:49;;;;;;;;;;;0.00;99.90;;;;;;5054129;28;19959;-74
2022/04/02 11:47:24;;;;;;;;;;;0.10;99.90;;;;;;5054302;28;20415;-75
2022/04/02 11:49:52;;;;;;;;;;;0.10;99.90;;;;;;5054143;28;19967;-76
2022/04/02 11:52:18;;;;;;;;;;;0.20;99.90;;;;;;5053767;28;19909;-75
2022/04/02 11:54:49;;;;;;;;;;;0.20;99.90;;;;;;5053958;28;19995;-75
2022/04/02 11:57:15;;;;;;;;;;;0.20;99.90;;;;;;5054193;28;20007;-76
2022/04/02 11:59:50;;;;;;;;;;;0.10;99.90;;;;;;5053779;28;20339;-77
2022/04/02 12:02:35;;;;;;;;;;;0.20;99.90;;;;;;5053399;28;19908;-76
2022/04/02 12:05:01;;;;;;;;;;;0.40;99.90;;;;;;5052289;28;19916;-76
2022/04/02 12:07:39;;;;;;;;;;;0.50;99.90;;;;;;5054006;28;19908;-78
2022/04/02 12:10:10;;;;;;;;;;;0.30;99.90;;;;;;5053634;28;19912;-76
2022/04/02 12:12:41;;;;;;;;;;;0.90;99.90;;;;;;5053758;28;20408;-76
2022/04/02 12:15:11;;;;;;;;;;;1.20;99.90;;;;;;5038243;28;19909;-75
2022/04/02 12:17:38;;;;;;;;;;;1.70;99.90;;;;;;5047628;28;19996;-75
2022/04/02 12:20:07;;;;;;;;;;;1.20;99.90;;;;;;5051180;28;20388;-76
2022/04/02 12:22:35;;;;;;;;;;;1.10;99.90;;;;;;5053410;28;19912;-76
2022/04/02 12:25:08;;;;;;;;;;;0.70;99.90;;;;;;5053706;28;19915;-75
2022/04/02 12:27:35;;;;;;;;;;;0.60;99.90;;;;;;5052744;28;19992;-76
2022/04/02 12:30:03;;;;;;;;;;;0.50;99.90;;;;;;5053555;28;19909;-76
2022/04/02 12:32:28;;;;;;;;;;;0.20;99.90;;;;;;5053374;28;19967;-76
2022/04/02 12:34:56;;;;;;;;;;;0.10;99.90;;;;;;5052799;28;19913;-76
2022/04/02 12:37:22;;;;;;;;;;;-0.10;99.90;;;;;;5053090;28;19909;-78
2022/04/02 12:39:48;;;;;;;;;;;0.10;99.90;;;;;;5052797;28;20301;-78
2022/04/02 12:42:13;;;;;;;;;;;0.00;99.90;;;;;;5052761;28;19917;-79
2022/04/02 12:44:39;;;;;;;;;;;0.00;99.90;;;;;;5051653;28;19909;-77
2022/04/02 12:47:09;;;;;;;;;;;0.20;99.90;;;;;;5053412;28;20259;-74
2022/04/02 12:49:35;;;;;;;;;;;0.40;99.90;;;;;;5053143;28;20320;-76
2022/04/02 12:52:17;;;;;;;;;;;0.60;99.90;;;;;;5052448;28;20343;-76
2022/04/02 12:54:44;;;;;;;;;;;0.60;99.90;;;;;;5049901;28;19908;-75
2022/04/02 12:57:11;;;;;;;;;;;0.70;99.90;;;;;;5048304;28;19962;-78
2022/04/02 12:59:40;;;;;;;;;;;0.90;99.90;;;;;;5052700;28;19913;-76
2022/04/02 13:02:06;;;;;;;;;;;0.80;99.90;;;;;;5052280;28;19909;-78
2022/04/02 13:04:32;;;;;;;;;;;0.80;99.90;;;;;;5052188;28;20026;-76
2022/04/02 13:06:59;;;;;;;;;;;0.60;99.90;;;;;;5055292;28;20270;-76
2022/04/02 13:09:31;;;;;;;;;;;0.30;99.90;;;;;;5054017;28;20397;-77
2022/04/02 13:11:57;;;;;;;;;;;0.20;99.90;;;;;;5059049;28;19928;-74
2022/04/02 13:14:24;;;;;;;;;;;0.40;99.90;;;;;;5049859;28;19913;-75
2022/04/02 13:16:51;;;;;;;;;;;0.20;99.90;;;;;;5054771;28;19909;-75
2022/04/02 13:22:05;;;;;;;;;;;0.50;99.90;;;;;;5055891;28;19955;-76
2022/04/02 13:24:32;;;;;;;;;;;0.20;99.90;;;;;;5052127;28;19913;-77
2022/04/02 13:27:17;;;;;;;;;;;0.50;99.90;;;;;;5059491;28;19909;-75
2022/04/02 13:29:54;;;;;;;;;;;0.50;99.90;;;;;;5039664;28;20060;-80
2022/04/02 13:32:37;;;;;;;;;;;0.70;99.90;;;;;;5065622;28;19908;-75
2022/04/02 13:35:02;;;;;;;;;;;0.50;99.90;;;;;;5061299;28;19949;-75
2022/04/02 13:37:47;;;;;;;;;;;0.70;99.90;;;;;;5051885;28;19986;-74
2022/04/02 13:40:17;;;;;;;;;;;0.70;99.90;;;;;;5052144;28;19920;-73
2022/04/02 13:42:56;;;;;;;;;;;0.90;99.90;;;;;;5052154;28;20009;-74
2022/04/02 13:45:24;;;;;;;;;;;0.70;99.90;;;;;;5051995;28;19916;-74
2022/04/02 13:47:54;;;;;;;;;;;0.40;99.90;;;;;;5051953;28;20385;-75
2022/04/02 13:50:20;;;;;;;;;;;0.40;99.90;;;;;;5050131;28;20018;-75
2022/04/02 13:52:57;;;;;;;;;;;0.40;99.90;;;;;;5051105;28;20445;-75
2022/04/02 13:55:28;;;;;;;;;;;0.50;99.90;;;;;;5051333;28;19916;-75
2022/04/02 13:57:53;;;;;;;;;;;0.60;99.90;;;;;;5049809;28;19919;-75
2022/04/02 14:00:23;;;;;;;;;;;0.70;99.90;;;;;;5051656;28;19913;-75
2022/04/02 14:02:51;;;;;;;;;;;0.80;99.90;;;;;;5051781;28;20277;-74
2022/04/02 14:05:30;;;;;;;;;;;0.70;99.90;;;;;;5051622;28;19916;-75
2022/04/02 14:08:06;;;;;;;;;;;0.70;99.90;;;;;;5051800;28;19909;-75
2022/04/02 14:10:45;;;;;;;;;;;0.60;99.90;;;;;;5051662;28;19916;-74
2022/04/02 14:13:12;;;;;;;;;;;0.60;99.90;;;;;;5051177;28;19909;-74
2022/04/02 14:15:48;;;;;;;;;;;0.50;99.90;;;;;;5051593;28;20431;-74
2022/04/02 14:18:17;;;;;;;;;;;0.30;99.90;;;;;;5051548;28;20369;-74
2022/04/02 14:20:44;;;;;;;;;;;0.20;99.90;;;;;;5050967;28;19912;-74
2022/04/02 14:23:13;;;;;;;;;;;0.00;99.90;;;;;;5053864;28;20585;-74
2022/04/02 14:25:56;;;;;;;;;;;-0.10;99.90;;;;;;5051168;28;19909;-75
2022/04/02 14:28:41;;;;;;;;;;;-0.10;99.90;;;;;;5050199;28;19908;-77
2022/04/02 14:31:16;;;;;;;;;;;0.00;99.90;;;;;;5049989;28;20004;-75
2022/04/02 14:33:41;;;;;;;;;;;0.20;99.90;;;;;;5051133;28;19913;-74
2022/04/02 14:36:10;;;;;;;;;;;0.00;99.90;;;;;;5051374;28;19978;-74